createdAt,value
2018-05-08T00:00:04.329Z,15.37
2018-05-08T00:00:35.562Z,15.37
2018-05-08T00:01:06.787Z,15.37
2018-05-08T00:01:37.997Z,15.38
2018-05-08T00:02:09.232Z,15.40
2018-05-08T00:02:40.491Z,15.39
2018-05-08T00:03:11.716Z,15.42
2018-05-08T00:03:42.922Z,15.42
2018-05-08T00:04:14.143Z,15.43
2018-05-08T00:04:45.371Z,15.44
2018-05-08T00:05:16.601Z,15.46
2018-05-08T00:05:47.809Z,15.46
2018-05-08T00:06:19.017Z,15.47
2018-05-08T00:06:50.225Z,15.47
2018-05-08T00:07:21.491Z,15.48
2018-05-08T00:07:52.792Z,15.47
2018-05-08T00:08:24.005Z,15.46
2018-05-08T00:08:55.241Z,15.44
2018-05-08T00:09:26.458Z,15.41
2018-05-08T00:09:57.701Z,15.39
2018-05-08T00:10:28.912Z,15.38
2018-05-08T00:11:00.125Z,15.37
2018-05-08T00:11:31.380Z,15.36
2018-05-08T00:12:02.593Z,15.35
2018-05-08T00:12:33.846Z,15.36
2018-05-08T00:13:05.057Z,15.34
2018-05-08T00:13:36.262Z,15.34
2018-05-08T00:14:07.482Z,15.33
2018-05-08T00:14:38.691Z,15.35
2018-05-08T00:15:09.915Z,15.35
2018-05-08T00:15:42.015Z,15.33
2018-05-08T00:16:13.230Z,15.33
2018-05-08T00:16:44.453Z,15.34
2018-05-08T00:17:15.657Z,15.34
2018-05-08T00:17:46.870Z,15.35
2018-05-08T00:18:18.086Z,15.37
2018-05-08T00:18:49.284Z,15.40
2018-05-08T00:19:21.463Z,15.42
2018-05-08T00:19:52.676Z,15.43
2018-05-08T00:20:24.572Z,15.44
2018-05-08T00:20:55.828Z,15.43
2018-05-08T00:21:27.083Z,15.45
2018-05-08T00:21:58.284Z,15.45
2018-05-08T00:22:29.501Z,15.46
2018-05-08T00:23:00.716Z,15.45
2018-05-08T00:23:31.924Z,15.47
2018-05-08T00:24:03.145Z,15.47
2018-05-08T00:24:34.355Z,15.48
2018-05-08T00:25:05.558Z,15.48
2018-05-08T00:25:36.813Z,15.48
2018-05-08T00:26:08.019Z,15.47
2018-05-08T00:26:39.277Z,15.48
2018-05-08T00:27:10.492Z,15.47
2018-05-08T00:27:41.711Z,15.47
2018-05-08T00:28:12.917Z,15.48
2018-05-08T00:28:44.136Z,15.47
2018-05-08T00:29:15.361Z,15.46
2018-05-08T00:29:46.574Z,15.48
2018-05-08T00:30:17.782Z,15.49
2018-05-08T00:30:49.017Z,15.53
2018-05-08T00:31:20.233Z,15.52
2018-05-08T00:31:51.484Z,15.51
2018-05-08T00:32:22.693Z,15.51
2018-05-08T00:32:53.897Z,15.51
2018-05-08T00:33:57.026Z,15.50
2018-05-08T00:34:28.344Z,15.50
2018-05-08T00:34:59.617Z,15.52
2018-05-08T00:35:30.828Z,15.51
2018-05-08T00:36:02.042Z,15.49
2018-05-08T00:36:33.291Z,15.48
2018-05-08T00:37:04.508Z,15.49
2018-05-08T00:37:35.777Z,15.51
2018-05-08T00:38:06.980Z,15.53
2018-05-08T00:38:38.184Z,15.53
2018-05-08T00:39:09.394Z,15.56
2018-05-08T00:39:40.605Z,15.57
2018-05-08T00:40:11.813Z,15.59
2018-05-08T00:40:43.678Z,15.59
2018-05-08T00:41:14.889Z,15.59
2018-05-08T00:41:46.097Z,15.58
2018-05-08T00:42:17.305Z,15.58
2018-05-08T00:42:48.590Z,15.56
2018-05-08T00:43:19.813Z,15.56
2018-05-08T00:43:51.034Z,15.53
2018-05-08T00:44:22.229Z,15.51
2018-05-08T00:44:53.441Z,15.48
2018-05-08T00:45:24.673Z,15.47
2018-05-08T00:45:55.885Z,15.45
2018-05-08T00:46:27.090Z,15.45
2018-05-08T00:46:58.325Z,15.43
2018-05-08T00:47:29.535Z,15.45
2018-05-08T00:48:00.835Z,15.46
2018-05-08T00:48:32.084Z,15.45
2018-05-08T00:49:03.324Z,15.47
2018-05-08T00:49:34.537Z,15.48
2018-05-08T00:50:05.760Z,15.49
2018-05-08T00:50:36.997Z,15.50
2018-05-08T00:51:08.209Z,15.52
2018-05-08T00:51:39.432Z,15.55
2018-05-08T00:52:10.638Z,15.57
2018-05-08T00:52:41.841Z,15.57
2018-05-08T00:53:13.111Z,15.60
2018-05-08T00:53:44.336Z,15.59
2018-05-08T00:54:15.548Z,15.58
2018-05-08T00:54:46.776Z,15.58
2018-05-08T00:55:18.018Z,15.60
2018-05-08T00:55:49.237Z,15.60
2018-05-08T00:56:20.450Z,15.59
2018-05-08T00:56:51.662Z,15.58
2018-05-08T00:57:22.911Z,15.56
2018-05-08T00:57:54.131Z,15.56
2018-05-08T00:58:25.342Z,15.55
2018-05-08T00:58:56.531Z,15.56
2018-05-08T00:59:27.745Z,15.57
2018-05-08T00:59:58.953Z,15.53
2018-05-08T01:00:30.227Z,15.51
2018-05-08T01:01:01.435Z,15.49
2018-05-08T01:01:33.716Z,15.48
2018-05-08T01:02:04.929Z,15.48
2018-05-08T01:02:36.142Z,15.47
2018-05-08T01:03:07.421Z,15.45
2018-05-08T01:03:38.640Z,15.44
2018-05-08T01:04:09.864Z,15.42
2018-05-08T01:04:41.086Z,15.40
2018-05-08T01:05:13.457Z,15.40
2018-05-08T01:05:44.663Z,15.39
2018-05-08T01:06:15.911Z,15.36
2018-05-08T01:06:47.128Z,15.34
2018-05-08T01:07:18.338Z,15.33
2018-05-08T01:07:49.548Z,15.34
2018-05-08T01:08:20.798Z,15.35
2018-05-08T01:08:52.005Z,15.34
2018-05-08T01:09:23.217Z,15.34
2018-05-08T01:09:54.436Z,15.34
2018-05-08T01:10:25.668Z,15.34
2018-05-08T01:10:56.894Z,15.35
2018-05-08T01:11:28.113Z,15.36
2018-05-08T01:11:59.329Z,15.37
2018-05-08T01:12:30.533Z,15.37
2018-05-08T01:13:01.736Z,15.39
2018-05-08T01:13:32.983Z,15.41
2018-05-08T01:14:04.205Z,15.39
2018-05-08T01:14:35.412Z,15.38
2018-05-08T01:15:06.617Z,15.37
2018-05-08T01:15:37.853Z,15.36
2018-05-08T01:16:09.081Z,15.34
2018-05-08T01:16:40.327Z,15.33
2018-05-08T01:17:11.574Z,15.32
2018-05-08T01:17:42.795Z,15.30
2018-05-08T01:18:14.005Z,15.29
2018-05-08T01:18:45.232Z,15.28
2018-05-08T01:19:16.445Z,15.28
2018-05-08T01:19:47.657Z,15.27
2018-05-08T01:20:18.867Z,15.26
2018-05-08T01:20:50.142Z,15.24
2018-05-08T01:21:21.368Z,15.26
2018-05-08T01:21:52.596Z,15.27
2018-05-08T01:22:23.818Z,15.27
2018-05-08T01:22:55.033Z,15.29
2018-05-08T01:23:26.277Z,15.29
2018-05-08T01:23:57.501Z,15.30
2018-05-08T01:24:28.707Z,15.31
2018-05-08T01:24:59.919Z,15.31
2018-05-08T01:25:31.142Z,15.31
2018-05-08T01:26:02.366Z,15.31
2018-05-08T01:26:33.573Z,15.32
2018-05-08T01:27:04.778Z,15.33
2018-05-08T01:27:35.985Z,15.35
2018-05-08T01:28:07.266Z,15.37
2018-05-08T01:28:38.485Z,15.38
2018-05-08T01:29:09.696Z,15.39
2018-05-08T01:29:40.943Z,15.40
2018-05-08T01:30:12.160Z,15.40
2018-05-08T01:30:43.380Z,15.41
2018-05-08T01:31:14.593Z,15.40
2018-05-08T01:31:46.414Z,15.42
2018-05-08T01:32:17.652Z,15.42
2018-05-08T01:32:48.938Z,15.39
2018-05-08T01:33:20.184Z,15.38
2018-05-08T01:33:51.393Z,15.36
2018-05-08T01:34:22.600Z,15.33
2018-05-08T01:34:53.801Z,15.30
2018-05-08T01:35:25.036Z,15.29
2018-05-08T01:35:56.245Z,15.27
2018-05-08T01:36:27.445Z,15.25
2018-05-08T01:36:58.688Z,15.23
2018-05-08T01:37:29.878Z,15.21
2018-05-08T01:38:01.124Z,15.18
2018-05-08T01:38:32.344Z,15.16
2018-05-08T01:39:03.553Z,15.15
2018-05-08T01:39:34.767Z,15.15
2018-05-08T01:40:05.968Z,15.13
2018-05-08T01:40:37.304Z,15.11
2018-05-08T01:41:08.549Z,15.09
2018-05-08T01:41:39.753Z,15.06
2018-05-08T01:42:10.961Z,15.04
2018-05-08T01:42:42.179Z,15.02
2018-05-08T01:43:13.419Z,15.02
2018-05-08T01:43:44.634Z,15.01
2018-05-08T01:44:15.840Z,15.00
2018-05-08T01:44:47.064Z,14.98
2018-05-08T01:45:18.278Z,14.97
2018-05-08T01:45:49.525Z,14.99
2018-05-08T01:46:20.732Z,14.96
2018-05-08T01:46:52.030Z,14.95
2018-05-08T01:47:23.208Z,14.96
2018-05-08T01:47:54.436Z,14.97
2018-05-08T01:48:25.748Z,14.97
2018-05-08T01:48:56.955Z,14.93
2018-05-08T01:49:28.235Z,14.92
2018-05-08T01:49:59.454Z,14.90
2018-05-08T01:50:30.697Z,14.93
2018-05-08T01:51:01.901Z,14.94
2018-05-08T01:51:33.113Z,14.95
2018-05-08T01:52:04.321Z,14.97
2018-05-08T01:52:35.533Z,14.98
2018-05-08T01:53:06.757Z,14.95
2018-05-08T01:53:37.970Z,14.93
2018-05-08T01:54:09.259Z,14.93
2018-05-08T01:54:40.451Z,14.95
2018-05-08T01:55:11.655Z,14.95
2018-05-08T01:55:42.879Z,14.94
2018-05-08T01:56:14.093Z,14.68
2018-05-08T01:56:45.305Z,14.96
2018-05-08T01:57:16.512Z,14.98
2018-05-08T01:57:47.721Z,15.00
2018-05-08T01:58:18.928Z,15.01
2018-05-08T01:58:50.148Z,15.02
2018-05-08T01:59:21.405Z,15.03
2018-05-08T01:59:52.667Z,15.03
2018-05-08T02:00:23.867Z,15.02
2018-05-08T02:00:55.087Z,15.01
2018-05-08T02:01:26.303Z,14.99
2018-05-08T02:01:57.653Z,14.99
2018-05-08T02:02:28.863Z,14.99
2018-05-08T02:03:00.105Z,15.00
2018-05-08T02:03:31.412Z,15.00
2018-05-08T02:04:02.634Z,15.00
2018-05-08T02:04:33.847Z,15.02
2018-05-08T02:05:05.069Z,15.01
2018-05-08T02:05:36.350Z,15.00
2018-05-08T02:06:07.565Z,15.00
2018-05-08T02:06:38.787Z,15.00
2018-05-08T02:07:10.003Z,15.02
2018-05-08T02:07:41.289Z,15.05
2018-05-08T02:08:12.575Z,15.07
2018-05-08T02:08:43.789Z,15.06
2018-05-08T02:09:15.281Z,15.10
2018-05-08T02:09:46.493Z,15.13
2018-05-08T02:10:17.700Z,15.14
2018-05-08T02:10:48.917Z,15.16
2018-05-08T02:11:20.118Z,15.17
2018-05-08T02:11:51.326Z,15.17
2018-05-08T02:12:22.545Z,15.14
2018-05-08T02:12:53.796Z,15.10
2018-05-08T02:13:25.100Z,15.07
2018-05-08T02:13:56.312Z,15.06
2018-05-08T02:14:27.514Z,15.05
2018-05-08T02:14:58.724Z,15.06
2018-05-08T02:15:29.934Z,15.08
2018-05-08T02:16:01.154Z,15.07
2018-05-08T02:16:32.361Z,15.05
2018-05-08T02:17:03.570Z,15.03
2018-05-08T02:17:34.794Z,15.02
2018-05-08T02:18:06.067Z,15.01
2018-05-08T02:18:37.322Z,15.01
2018-05-08T02:19:08.515Z,15.00
2018-05-08T02:19:39.732Z,15.03
2018-05-08T02:20:10.945Z,15.04
2018-05-08T02:20:42.152Z,15.02
2018-05-08T02:21:13.399Z,15.00
2018-05-08T02:21:44.617Z,14.98
2018-05-08T02:22:15.815Z,14.93
2018-05-08T02:22:47.029Z,14.92
2018-05-08T02:23:18.295Z,14.89
2018-05-08T02:23:49.523Z,14.88
2018-05-08T02:24:20.728Z,14.86
2018-05-08T02:24:51.941Z,14.84
2018-05-08T02:25:23.140Z,14.85
2018-05-08T02:25:54.478Z,14.83
2018-05-08T02:26:25.697Z,14.83
2018-05-08T02:26:56.909Z,14.81
2018-05-08T02:27:28.121Z,14.79
2018-05-08T02:27:59.340Z,14.77
2018-05-08T02:28:30.559Z,14.75
2018-05-08T02:29:01.791Z,14.71
2018-05-08T02:29:32.998Z,14.68
2018-05-08T02:30:04.223Z,14.65
2018-05-08T02:30:35.446Z,14.61
2018-05-08T02:31:06.703Z,14.60
2018-05-08T02:31:37.919Z,14.59
2018-05-08T02:32:09.138Z,14.59
2018-05-08T02:32:40.343Z,14.58
2018-05-08T02:33:11.549Z,14.56
2018-05-08T02:33:43.608Z,14.54
2018-05-08T02:34:14.826Z,14.53
2018-05-08T02:34:46.035Z,14.51
2018-05-08T02:35:17.276Z,14.49
2018-05-08T02:35:48.476Z,14.47
2018-05-08T02:36:19.686Z,14.45
2018-05-08T02:36:50.897Z,14.44
2018-05-08T02:37:22.155Z,14.45
2018-05-08T02:37:53.387Z,14.44
2018-05-08T02:38:24.617Z,14.43
2018-05-08T02:38:55.827Z,14.44
2018-05-08T02:39:27.072Z,14.44
2018-05-08T02:39:58.308Z,14.44
2018-05-08T02:40:29.525Z,14.45
2018-05-08T02:41:00.754Z,14.48
2018-05-08T02:41:31.972Z,14.48
2018-05-08T02:42:03.466Z,14.48
2018-05-08T02:42:34.825Z,14.49
2018-05-08T02:43:06.066Z,14.49
2018-05-08T02:43:38.415Z,14.50
2018-05-08T02:44:09.627Z,14.51
2018-05-08T02:44:40.836Z,14.51
2018-05-08T02:45:12.085Z,14.51
2018-05-08T02:45:43.309Z,14.51
2018-05-08T02:46:14.514Z,14.53
2018-05-08T02:46:45.724Z,14.52
2018-05-08T02:47:16.929Z,14.53
2018-05-08T02:47:48.819Z,14.52
2018-05-08T02:48:20.033Z,14.51
2018-05-08T02:48:51.219Z,14.51
2018-05-08T02:49:22.425Z,14.52
2018-05-08T02:49:53.630Z,14.52
2018-05-08T02:50:24.852Z,14.53
2018-05-08T02:50:56.099Z,14.54
2018-05-08T02:51:27.325Z,14.56
2018-05-08T02:51:58.534Z,14.56
2018-05-08T02:52:29.761Z,14.58
2018-05-08T02:53:01.043Z,14.58
2018-05-08T02:53:32.268Z,14.59
2018-05-08T02:54:04.447Z,14.59
2018-05-08T02:54:35.668Z,14.60
2018-05-08T02:55:06.925Z,14.60
2018-05-08T02:55:38.179Z,14.61
2018-05-08T02:56:09.442Z,14.58
2018-05-08T02:56:40.697Z,14.57
2018-05-08T02:57:11.890Z,14.57
2018-05-08T02:57:43.105Z,14.59
2018-05-08T02:58:14.316Z,14.60
2018-05-08T02:58:46.356Z,14.61
2018-05-08T02:59:17.602Z,14.61
2018-05-08T02:59:48.816Z,14.59
2018-05-08T03:00:20.044Z,14.56
2018-05-08T03:00:51.344Z,14.53
2018-05-08T03:01:22.567Z,14.51
2018-05-08T03:01:53.793Z,14.50
2018-05-08T03:02:25.004Z,14.51
2018-05-08T03:02:56.217Z,14.53
2018-05-08T03:03:27.450Z,14.55
2018-05-08T03:03:58.673Z,14.56
2018-05-08T03:04:29.883Z,14.53
2018-05-08T03:05:01.127Z,14.55
2018-05-08T03:05:32.352Z,14.56
2018-05-08T03:06:03.645Z,14.59
2018-05-08T03:06:34.858Z,14.60
2018-05-08T03:07:06.117Z,14.61
2018-05-08T03:07:37.329Z,14.63
2018-05-08T03:08:08.533Z,14.66
2018-05-08T03:08:39.764Z,14.68
2018-05-08T03:09:10.977Z,14.71
2018-05-08T03:09:42.186Z,14.73
2018-05-08T03:10:13.419Z,14.71
2018-05-08T03:10:44.722Z,14.70
2018-05-08T03:11:15.937Z,14.68
2018-05-08T03:11:47.190Z,14.69
2018-05-08T03:12:18.425Z,14.46
2018-05-08T03:12:49.627Z,14.68
2018-05-08T03:13:20.883Z,14.69
2018-05-08T03:13:52.113Z,14.70
2018-05-08T03:14:23.325Z,14.72
2018-05-08T03:14:54.539Z,14.73
2018-05-08T03:15:25.742Z,14.74
2018-05-08T03:15:56.991Z,14.75
2018-05-08T03:16:28.193Z,14.77
2018-05-08T03:16:59.435Z,14.79
2018-05-08T03:17:30.696Z,14.81
2018-05-08T03:18:01.924Z,14.81
2018-05-08T03:18:33.137Z,14.82
2018-05-08T03:19:04.333Z,14.82
2018-05-08T03:19:35.546Z,14.82
2018-05-08T03:20:06.749Z,14.83
2018-05-08T03:20:39.012Z,14.84
2018-05-08T03:21:10.218Z,14.86
2018-05-08T03:21:41.800Z,14.86
2018-05-08T03:22:13.105Z,14.88
2018-05-08T03:22:44.308Z,14.91
2018-05-08T03:23:15.556Z,14.92
2018-05-08T03:23:46.808Z,14.94
2018-05-08T03:24:18.021Z,14.95
2018-05-08T03:24:50.271Z,14.98
2018-05-08T03:25:21.481Z,15.02
2018-05-08T03:25:53.325Z,15.07
2018-05-08T03:26:24.536Z,15.12
2018-05-08T03:26:55.743Z,15.16
2018-05-08T03:27:27.002Z,15.19
2018-05-08T03:27:59.071Z,15.21
2018-05-08T03:28:30.290Z,15.24
2018-05-08T03:29:01.501Z,15.24
2018-05-08T03:29:32.725Z,15.21
2018-05-08T03:30:03.964Z,15.18
2018-05-08T03:30:35.187Z,15.16
2018-05-08T03:31:06.409Z,15.16
2018-05-08T03:31:37.629Z,15.20
2018-05-08T03:32:08.837Z,15.23
2018-05-08T03:32:40.185Z,15.27
2018-05-08T03:33:11.407Z,15.31
2018-05-08T03:33:42.633Z,15.34
2018-05-08T03:34:14.604Z,15.37
2018-05-08T03:34:45.915Z,15.39
2018-05-08T03:35:17.124Z,15.42
2018-05-08T03:35:48.343Z,15.45
2018-05-08T03:36:19.637Z,15.26
2018-05-08T03:36:50.894Z,15.45
2018-05-08T03:37:22.164Z,15.43
2018-05-08T03:37:53.501Z,15.40
2018-05-08T03:38:24.814Z,15.39
2018-05-08T03:38:56.076Z,15.38
2018-05-08T03:39:27.619Z,15.34
2018-05-08T03:39:58.928Z,15.33
2018-05-08T03:40:30.150Z,15.31
2018-05-08T03:41:01.371Z,15.31
2018-05-08T03:41:32.585Z,15.32
2018-05-08T03:42:03.787Z,15.34
2018-05-08T03:42:35.001Z,15.35
2018-05-08T03:43:06.206Z,15.37
2018-05-08T03:43:37.458Z,15.39
2018-05-08T03:44:08.670Z,15.41
2018-05-08T03:44:39.887Z,15.43
2018-05-08T03:45:11.151Z,15.45
2018-05-08T03:45:42.394Z,15.46
2018-05-08T03:46:13.653Z,15.48
2018-05-08T03:46:44.860Z,15.51
2018-05-08T03:47:16.055Z,15.54
2018-05-08T03:47:47.254Z,15.56
2018-05-08T03:48:18.468Z,15.57
2018-05-08T03:48:49.676Z,15.57
2018-05-08T03:49:20.886Z,15.57
2018-05-08T03:49:52.126Z,15.59
2018-05-08T03:50:23.334Z,15.60
2018-05-08T03:50:54.542Z,15.63
2018-05-08T03:51:25.792Z,15.64
2018-05-08T03:51:56.999Z,15.64
2018-05-08T03:52:28.242Z,15.66
2018-05-08T03:52:59.447Z,15.68
2018-05-08T03:53:30.643Z,15.70
2018-05-08T03:54:02.232Z,15.72
2018-05-08T03:54:33.497Z,15.74
2018-05-08T03:55:04.815Z,15.74
2018-05-08T03:55:36.028Z,15.72
2018-05-08T03:56:07.234Z,15.71
2018-05-08T03:56:38.498Z,15.72
2018-05-08T03:57:09.730Z,15.72
2018-05-08T03:57:40.969Z,15.74
2018-05-08T03:58:12.196Z,15.74
2018-05-08T03:58:43.417Z,15.74
2018-05-08T03:59:14.632Z,15.74
2018-05-08T03:59:45.855Z,15.75
2018-05-08T04:00:17.078Z,15.75
2018-05-08T04:00:48.293Z,15.77
2018-05-08T04:01:19.499Z,15.79
2018-05-08T04:01:50.748Z,15.79
2018-05-08T04:02:21.950Z,15.80
2018-05-08T04:02:53.161Z,15.80
2018-05-08T04:03:24.377Z,15.82
2018-05-08T04:03:55.593Z,15.83
2018-05-08T04:04:26.895Z,15.83
2018-05-08T04:04:58.110Z,15.84
2018-05-08T04:05:29.322Z,15.85
2018-05-08T04:06:00.551Z,15.82
2018-05-08T04:06:31.824Z,15.81
2018-05-08T04:07:03.059Z,15.80
2018-05-08T04:07:34.262Z,15.80
2018-05-08T04:08:05.523Z,15.81
2018-05-08T04:08:36.730Z,15.80
2018-05-08T04:09:07.939Z,15.80
2018-05-08T04:09:39.152Z,15.82
2018-05-08T04:10:10.437Z,15.82
2018-05-08T04:10:41.669Z,15.86
2018-05-08T04:11:12.881Z,15.90
2018-05-08T04:11:44.132Z,15.93
2018-05-08T04:12:15.349Z,15.95
2018-05-08T04:12:46.592Z,15.99
2018-05-08T04:13:17.804Z,16.02
2018-05-08T04:13:49.054Z,16.06
2018-05-08T04:14:20.289Z,16.09
2018-05-08T04:14:51.514Z,16.14
2018-05-08T04:15:22.833Z,16.18
2018-05-08T04:15:54.027Z,16.21
2018-05-08T04:16:25.241Z,16.24
2018-05-08T04:16:56.450Z,16.28
2018-05-08T04:17:27.725Z,16.31
2018-05-08T04:17:58.986Z,16.34
2018-05-08T04:18:30.217Z,16.33
2018-05-08T04:19:01.433Z,16.30
2018-05-08T04:19:32.662Z,16.30
2018-05-08T04:20:03.881Z,16.27
2018-05-08T04:20:35.092Z,16.27
2018-05-08T04:21:06.344Z,16.29
2018-05-08T04:21:37.552Z,16.28
2018-05-08T04:22:08.767Z,16.28
2018-05-08T04:22:40.717Z,16.31
2018-05-08T04:23:11.982Z,16.29
2018-05-08T04:23:46.797Z,16.27
2018-05-08T04:24:18.022Z,16.24
2018-05-08T04:24:49.253Z,16.21
2018-05-08T04:25:58.429Z,16.23
2018-05-08T04:26:29.666Z,16.25
2018-05-08T04:27:00.895Z,16.28
2018-05-08T04:27:32.191Z,16.28
2018-05-08T04:28:03.408Z,16.31
2018-05-08T04:28:34.644Z,16.32
2018-05-08T04:29:05.866Z,16.33
2018-05-08T04:29:37.117Z,16.31
2018-05-08T04:30:08.407Z,16.31
2018-05-08T04:30:39.685Z,16.33
2018-05-08T04:31:10.935Z,16.34
2018-05-08T04:31:42.181Z,16.34
2018-05-08T04:32:13.419Z,16.33
2018-05-08T04:32:44.650Z,16.35
2018-05-08T04:33:15.933Z,16.37
2018-05-08T04:33:47.177Z,16.40
2018-05-08T04:34:18.447Z,16.41
2018-05-08T04:34:49.708Z,16.43
2018-05-08T04:35:20.987Z,16.52
2018-05-08T04:35:52.234Z,16.68
2018-05-08T04:36:23.470Z,16.86
2018-05-08T04:36:54.695Z,17.05
2018-05-08T04:37:25.930Z,17.28
2018-05-08T04:37:57.215Z,17.55
2018-05-08T04:38:28.453Z,17.82
2018-05-08T04:38:59.690Z,18.06
2018-05-08T04:39:31.712Z,18.27
2018-05-08T04:40:03.641Z,18.44
2018-05-08T04:40:34.985Z,18.62
2018-05-08T04:41:10.679Z,18.84
2018-05-08T04:41:43.059Z,19.09
2018-05-08T04:42:17.419Z,19.31
2018-05-08T04:42:48.729Z,19.46
2018-05-08T04:43:21.587Z,19.60
2018-05-08T04:43:52.868Z,19.63
2018-05-08T04:44:24.461Z,19.58
2018-05-08T04:44:55.843Z,19.49
2018-05-08T04:45:27.349Z,19.40
2018-05-08T04:45:58.880Z,19.31
2018-05-08T04:46:31.308Z,19.17
2018-05-08T04:47:03.168Z,19.08
2018-05-08T04:47:35.326Z,19.02
2018-05-08T04:48:07.869Z,18.97
2018-05-08T04:48:40.209Z,18.92
2018-05-08T04:49:11.803Z,18.74
2018-05-08T04:49:43.121Z,18.69
2018-05-08T04:50:14.755Z,18.60
2018-05-08T04:50:46.065Z,18.57
2018-05-08T04:51:17.340Z,18.56
2018-05-08T04:51:49.528Z,18.53
2018-05-08T04:53:00.236Z,18.35
2018-05-08T04:53:34.387Z,18.21
2018-05-08T04:54:05.845Z,18.16
2018-05-08T04:54:38.128Z,18.10
2018-05-08T04:55:09.587Z,18.05
2018-05-08T04:55:42.432Z,18.02
2018-05-08T04:56:14.569Z,18.02
2018-05-08T04:56:46.305Z,18.06
2018-05-08T04:57:18.002Z,18.11
2018-05-08T04:57:49.875Z,18.11
2018-05-08T04:58:21.345Z,18.14
2018-05-08T04:59:32.474Z,18.12
2018-05-08T05:00:03.827Z,18.25
2018-05-08T05:00:36.025Z,18.50
2018-05-08T05:01:07.249Z,18.81
2018-05-08T05:01:38.885Z,19.10
2018-05-08T05:02:10.168Z,19.39
2018-05-08T05:02:41.464Z,19.67
2018-05-08T05:03:13.547Z,19.95
2018-05-08T05:03:44.896Z,20.24
2018-05-08T05:04:16.148Z,20.54
2018-05-08T05:04:47.418Z,20.80
2018-05-08T05:05:18.681Z,21.11
2018-05-08T05:05:49.959Z,21.38
2018-05-08T05:06:21.264Z,21.69
2018-05-08T05:06:52.503Z,22.02
2018-05-08T05:07:23.755Z,22.39
2018-05-08T05:07:54.974Z,22.72
2018-05-08T05:08:26.240Z,22.97
2018-05-08T05:08:57.504Z,23.11
2018-05-08T05:09:28.709Z,23.29
2018-05-08T05:10:00.514Z,23.41
2018-05-08T05:10:31.735Z,23.55
2018-05-08T05:11:03.070Z,23.58
2018-05-08T05:11:34.242Z,23.61
2018-05-08T05:12:05.478Z,23.82
2018-05-08T05:12:36.697Z,24.07
2018-05-08T05:13:07.949Z,24.30
2018-05-08T05:13:39.185Z,24.55
2018-05-08T05:14:10.462Z,24.76
2018-05-08T05:14:41.699Z,24.97
2018-05-08T05:15:12.914Z,25.19
2018-05-08T05:15:44.154Z,25.31
2018-05-08T05:16:15.385Z,25.50
2018-05-08T05:16:46.651Z,25.56
2018-05-08T05:17:17.869Z,25.45
2018-05-08T05:17:49.101Z,25.50
2018-05-08T05:18:20.345Z,25.48
2018-05-08T05:18:51.574Z,25.30
2018-05-08T05:19:22.918Z,25.40
2018-05-08T05:19:54.138Z,25.58
2018-05-08T05:20:25.357Z,25.75
2018-05-08T05:20:56.616Z,25.92
2018-05-08T05:21:27.829Z,26.06
2018-05-08T05:21:59.038Z,26.21
2018-05-08T05:22:30.254Z,26.39
2018-05-08T05:23:01.482Z,26.58
2018-05-08T05:23:32.700Z,26.66
2018-05-08T05:24:03.917Z,26.76
2018-05-08T05:24:35.218Z,26.81
2018-05-08T05:25:06.394Z,26.83
2018-05-08T05:25:37.623Z,26.94
2018-05-08T05:26:08.902Z,27.05
2018-05-08T05:26:40.125Z,27.12
2018-05-08T05:27:11.354Z,27.16
2018-05-08T05:27:42.581Z,27.20
2018-05-08T05:28:13.872Z,27.17
2018-05-08T05:28:45.118Z,27.20
2018-05-08T05:29:16.349Z,27.19
2018-05-08T05:29:47.581Z,27.22
2018-05-08T05:30:18.800Z,27.21
2018-05-08T05:30:50.137Z,27.17
2018-05-08T05:31:21.367Z,27.09
2018-05-08T05:31:52.627Z,27.01
2018-05-08T05:32:23.827Z,26.96
2018-05-08T05:32:55.038Z,26.90
2018-05-08T05:33:26.302Z,26.86
2018-05-08T05:33:57.529Z,26.82
2018-05-08T05:34:28.745Z,26.71
2018-05-08T05:34:59.953Z,26.64
2018-05-08T05:35:31.216Z,26.57
2018-05-08T05:36:02.464Z,26.33
2018-05-08T05:36:33.692Z,26.37
2018-05-08T05:37:04.975Z,26.35
2018-05-08T05:37:36.202Z,26.21
2018-05-08T05:38:07.435Z,26.02
2018-05-08T05:38:38.671Z,25.97
2018-05-08T05:39:09.903Z,25.86
2018-05-08T05:39:41.125Z,25.78
2018-05-08T05:40:12.350Z,25.70
2018-05-08T05:40:43.592Z,25.62
2018-05-08T05:41:14.816Z,25.59
2018-05-08T05:41:46.049Z,25.53
2018-05-08T05:42:17.312Z,25.41
2018-05-08T05:42:48.519Z,25.36
2018-05-08T05:43:19.741Z,25.31
2018-05-08T05:43:50.948Z,25.25
2018-05-08T05:44:22.157Z,25.25
2018-05-08T05:44:53.439Z,25.19
2018-05-08T05:45:24.682Z,24.88
2018-05-08T05:45:55.905Z,24.74
2018-05-08T05:46:27.113Z,24.71
2018-05-08T05:46:58.366Z,24.69
2018-05-08T05:47:29.579Z,24.68
2018-05-08T05:48:00.788Z,24.57
2018-05-08T05:48:32.038Z,24.51
2018-05-08T05:49:03.311Z,24.51
2018-05-08T05:49:34.533Z,24.62
2018-05-08T05:50:05.748Z,24.48
2018-05-08T05:50:36.970Z,24.42
2018-05-08T05:51:08.221Z,24.37
2018-05-08T05:51:39.439Z,24.36
2018-05-08T05:52:10.666Z,24.17
2018-05-08T05:52:41.956Z,24.07
2018-05-08T05:53:14.073Z,23.89
2018-05-08T05:53:45.390Z,23.84
2018-05-08T05:54:16.630Z,23.84
2018-05-08T05:54:47.882Z,23.10
2018-05-08T05:55:19.114Z,23.84
2018-05-08T05:55:50.346Z,23.83
2018-05-08T05:56:21.537Z,23.73
2018-05-08T05:56:52.784Z,23.62
2018-05-08T05:57:24.005Z,23.72
2018-05-08T05:57:55.209Z,23.85
2018-05-08T05:58:26.606Z,23.98
2018-05-08T05:58:57.852Z,24.12
2018-05-08T05:59:29.081Z,24.23
2018-05-08T06:00:00.336Z,24.30
2018-05-08T06:00:31.549Z,24.30
2018-05-08T06:01:02.810Z,24.30
2018-05-08T06:01:34.026Z,24.31
2018-05-08T06:02:05.322Z,24.30
2018-05-08T06:02:36.562Z,24.34
2018-05-08T06:03:07.783Z,24.16
2018-05-08T06:03:39.021Z,24.10
2018-05-08T06:04:10.261Z,23.99
2018-05-08T06:04:41.483Z,23.93
2018-05-08T06:05:12.689Z,23.83
2018-05-08T06:05:43.908Z,23.78
2018-05-08T06:06:15.180Z,23.84
2018-05-08T06:06:46.395Z,23.98
2018-05-08T06:07:17.658Z,24.01
2018-05-08T06:07:48.897Z,24.02
2018-05-08T06:08:20.117Z,24.06
2018-05-08T06:08:51.348Z,23.77
2018-05-08T06:09:22.553Z,23.76
2018-05-08T06:09:53.809Z,23.69
2018-05-08T06:11:08.252Z,23.70
2018-05-08T06:11:39.521Z,23.72
2018-05-08T06:12:10.795Z,23.81
2018-05-08T06:12:42.037Z,23.71
2018-05-08T06:13:13.290Z,23.64
2018-05-08T06:13:44.509Z,23.36
2018-05-08T06:14:15.742Z,23.38
2018-05-08T06:14:47.005Z,23.32
2018-05-08T06:15:18.245Z,23.22
2018-05-08T06:15:49.486Z,23.22
2018-05-08T06:16:20.709Z,23.30
2018-05-08T06:16:51.903Z,23.34
2018-05-08T06:17:23.123Z,23.37
2018-05-08T06:17:54.386Z,23.38
2018-05-08T06:18:25.606Z,23.46
2018-05-08T06:18:56.911Z,23.52
2018-05-08T06:19:28.133Z,23.50
2018-05-08T06:19:59.401Z,23.43
2018-05-08T06:20:31.619Z,23.35
2018-05-08T06:21:06.336Z,23.45
2018-05-08T06:21:37.538Z,23.57
2018-05-08T06:22:08.746Z,23.64
2018-05-08T06:22:39.970Z,23.61
2018-05-08T06:23:11.253Z,23.61
2018-05-08T06:23:42.476Z,23.66
2018-05-08T06:24:13.705Z,23.74
2018-05-08T06:24:44.915Z,23.80
2018-05-08T06:25:16.201Z,23.81
2018-05-08T06:25:47.443Z,23.79
2018-05-08T06:26:18.674Z,23.70
2018-05-08T06:26:49.941Z,23.64
2018-05-08T06:27:21.233Z,23.61
2018-05-08T06:27:52.557Z,23.68
2018-05-08T06:28:23.841Z,23.75
2018-05-08T06:28:55.146Z,23.56
2018-05-08T06:29:27.308Z,23.90
2018-05-08T06:29:59.727Z,23.90
2018-05-08T06:30:30.958Z,23.94
2018-05-08T06:31:02.205Z,23.98
2018-05-08T06:31:33.436Z,24.05
2018-05-08T06:32:04.697Z,24.10
2018-05-08T06:32:35.920Z,24.11
2018-05-08T06:33:07.163Z,24.17
2018-05-08T06:33:38.368Z,24.22
2018-05-08T06:34:09.648Z,24.14
2018-05-08T06:34:40.857Z,24.05
2018-05-08T06:35:13.567Z,24.05
2018-05-08T06:35:44.785Z,24.06
2018-05-08T06:36:16.063Z,24.04
2018-05-08T06:36:47.316Z,24.02
2018-05-08T06:37:18.559Z,24.00
2018-05-08T06:37:50.828Z,23.99
2018-05-08T06:38:22.077Z,24.00
2018-05-08T06:38:53.352Z,23.73
2018-05-08T06:39:26.759Z,23.81
2018-05-08T06:39:58.129Z,24.03
2018-05-08T06:40:31.414Z,24.06
2018-05-08T06:41:02.997Z,24.06
2018-05-08T06:42:23.893Z,24.30
2018-05-08T06:44:10.233Z,24.15
2018-05-08T06:44:41.544Z,23.81
2018-05-08T06:45:12.815Z,23.61
2018-05-08T06:45:44.114Z,23.61
2018-05-08T06:46:16.424Z,23.67
2018-05-08T06:46:47.778Z,23.67
2018-05-08T06:47:18.950Z,23.75
2018-05-08T06:47:50.183Z,23.77
2018-05-08T06:48:21.518Z,23.77